Time,TemperatureF,DewpointF,PressureIn,WindDirection,WindDirectionDegrees,WindSpeedMPH,WindSpeedGustMPH,Humidity,HourlyPrecipIn,Conditions,Clouds,dailyrainin,SoftwareType,DateUTC
2013-08-30 00:01:00,67.4,64.7,29.97,ESE,117,0.0,1.0,91,0.00,,,0.00,Wunderground v.1.15,2013-08-30 04:01:00,
2013-08-30 00:02:00,67.4,65.0,29.97,ESE,117,0.0,1.0,92,0.00,,,0.00,Wunderground v.1.15,2013-08-30 04:02:00,
2013-08-30 00:03:00,67.4,65.0,29.97,ESE,117,0.0,1.0,92,0.00,,,0.00,Wunderground v.1.15,2013-08-30 04:03:00,
2013-08-30 00:05:00,67.4,65.0,29.97,ESE,117,0.0,1.0,92,0.00,,,0.00,Wunderground v.1.15,2013-08-30 04:05:00,
2013-08-30 00:06:00,67.4,65.0,29.97,ESE,117,0.0,1.0,92,0.00,,,0.00,Wunderground v.1.15,2013-08-30 04:06:00,
2013-08-30 00:11:00,67.3,64.9,29.97,ESE,117,0.0,1.0,92,0.00,,,0.00,Wunderground v.1.15,2013-08-30 04:11:00,
2013-08-30 00:17:00,67.4,65.3,29.98,ESE,118,0.0,1.0,93,0.00,,,0.00,Wunderground v.1.15,2013-08-30 04:17:00,
2013-08-30 00:22:00,67.4,65.0,29.98,ESE,118,0.0,1.0,92,0.00,,,0.00,Wunderground v.1.15,2013-08-30 04:22:00,
2013-08-30 00:27:00,67.3,65.2,29.98,ESE,118,0.0,1.0,93,0.00,,,0.00,Wunderground v.1.15,2013-08-30 04:27:00,
2013-08-30 00:32:00,67.2,64.8,29.97,ESE,118,0.0,1.0,92,0.00,,,0.00,Wunderground v.1.15,2013-08-30 04:32:00,
2013-08-30 00:37:00,67.1,64.7,29.97,ESE,118,0.0,2.0,92,0.00,,,0.00,Wunderground v.1.15,2013-08-30 04:37:00,
2013-08-30 00:42:00,67.1,64.7,29.97,ESE,119,1.0,1.0,92,0.00,,,0.00,Wunderground v.1.15,2013-08-30 04:42:00,
2013-08-30 00:47:00,67.0,64.6,29.97,ESE,119,0.0,1.0,92,0.00,,,0.00,Wunderground v.1.15,2013-08-30 04:47:00,
2013-08-30 00:53:00,66.9,64.5,29.97,ESE,119,0.0,1.0,92,0.00,,,0.00,Wunderground v.1.15,2013-08-30 04:53:00,
2013-08-30 00:58:00,66.8,64.7,29.98,ESE,119,0.0,1.0,93,0.00,,,0.00,Wunderground v.1.15,2013-08-30 04:58:00,
2013-08-30 01:03:00,66.8,64.7,29.97,ESE,119,0.0,1.0,93,0.00,,,0.00,Wunderground v.1.15,2013-08-30 05:03:00,
2013-08-30 01:08:00,66.7,64.6,29.97,ESE,119,0.0,1.0,93,0.00,,,0.00,Wunderground v.1.15,2013-08-30 05:08:00,
2013-08-30 01:14:00,66.5,64.4,29.97,ESE,119,0.0,1.0,93,0.00,,,0.00,Wunderground v.1.15,2013-08-30 05:14:00,
2013-08-30 01:20:00,66.3,64.2,29.97,ESE,119,0.0,1.0,93,0.00,,,0.00,Wunderground v.1.15,2013-08-30 05:20:00,
2013-08-30 01:25:00,66.2,64.1,29.98,ESE,119,0.0,1.0,93,0.00,,,0.00,Wunderground v.1.15,2013-08-30 05:25:00,
2013-08-30 01:30:00,66.1,64.0,29.98,ESE,119,0.0,1.0,93,0.00,,,0.00,Wunderground v.1.15,2013-08-30 05:30:00,
2013-08-30 01:36:00,65.9,63.8,29.97,ESE,119,0.0,1.0,93,0.00,,,0.00,Wunderground v.1.15,2013-08-30 05:36:00,
2013-08-30 01:42:00,65.8,64.0,29.97,ESE,119,0.0,1.0,94,0.00,,,0.00,Wunderground v.1.15,2013-08-30 05:42:00,
2013-08-30 01:47:00,65.8,64.0,29.97,ESE,119,0.0,1.0,94,0.00,,,0.00,Wunderground v.1.15,2013-08-30 05:47:00,
2013-08-30 01:53:00,65.7,63.9,29.97,ESE,119,0.0,1.0,94,0.00,,,0.00,Wunderground v.1.15,2013-08-30 05:53:00,
2013-08-30 01:59:00,65.6,63.8,29.97,ESE,119,0.0,1.0,94,0.00,,,0.00,Wunderground v.1.15,2013-08-30 05:59:00,
2013-08-30 02:04:00,65.6,63.8,29.97,ESE,119,0.0,1.0,94,0.00,,,0.00,Wunderground v.1.15,2013-08-30 06:04:00,
2013-08-30 02:09:00,65.5,63.7,29.97,ESE,119,0.0,1.0,94,0.00,,,0.00,Wunderground v.1.15,2013-08-30 06:09:00,
2013-08-30 02:15:00,65.3,63.5,29.97,ESE,119,0.0,1.0,94,0.00,,,0.00,Wunderground v.1.15,2013-08-30 06:15:00,
2013-08-30 02:20:00,65.3,63.5,29.97,ESE,119,0.0,1.0,94,0.00,,,0.00,Wunderground v.1.15,2013-08-30 06:20:00,
2013-08-30 02:25:00,65.2,63.4,29.97,ESE,119,0.0,1.0,94,0.00,,,0.00,Wunderground v.1.15,2013-08-30 06:25:00,
2013-08-30 02:30:00,65.1,63.3,29.97,ESE,119,0.0,1.0,94,0.00,,,0.00,Wunderground v.1.15,2013-08-30 06:30:00,
2013-08-30 02:35:00,65.0,63.2,29.97,ESE,119,0.0,1.0,94,0.00,,,0.00,Wunderground v.1.15,2013-08-30 06:35:00,
2013-08-30 02:41:00,64.9,63.1,29.97,ESE,119,0.0,1.0,94,0.00,,,0.00,Wunderground v.1.15,2013-08-30 06:41:00,
2013-08-30 02:46:00,64.8,63.0,29.97,ESE,119,0.0,1.0,94,0.00,,,0.00,Wunderground v.1.15,2013-08-30 06:46:00,
2013-08-30 02:51:00,64.7,62.9,29.97,ESE,119,0.0,1.0,94,0.00,,,0.00,Wunderground v.1.15,2013-08-30 06:51:00,
2013-08-30 02:56:00,64.5,62.7,29.97,ESE,119,0.0,1.0,94,0.00,,,0.00,Wunderground v.1.15,2013-08-30 06:56:00,
2013-08-30 03:01:00,64.4,62.6,29.97,ESE,119,0.0,1.0,94,0.00,,,0.00,Wunderground v.1.15,2013-08-30 07:01:00,
2013-08-30 03:06:00,64.3,62.5,29.97,ESE,119,0.0,1.0,94,0.00,,,0.00,Wunderground v.1.15,2013-08-30 07:06:00,
2013-08-30 03:12:00,64.3,62.5,29.97,ESE,119,0.0,1.0,94,0.00,,,0.00,Wunderground v.1.15,2013-08-30 07:12:00,
2013-08-30 03:17:00,64.2,62.7,29.97,ESE,119,0.0,1.0,95,0.00,,,0.00,Wunderground v.1.15,2013-08-30 07:17:00,
2013-08-30 03:23:00,64.2,62.7,29.97,ESE,119,0.0,1.0,95,0.00,,,0.00,Wunderground v.1.15,2013-08-30 07:23:00,
2013-08-30 03:28:00,64.2,62.7,29.96,ESE,119,0.0,1.0,95,0.00,,,0.00,Wunderground v.1.15,2013-08-30 07:28:00,
2013-08-30 03:33:00,64.1,62.6,29.96,ESE,119,0.0,1.0,95,0.00,,,0.00,Wunderground v.1.15,2013-08-30 07:33:00,
2013-08-30 03:38:00,64.1,62.6,29.97,ESE,119,0.0,1.0,95,0.00,,,0.00,Wunderground v.1.15,2013-08-30 07:38:00,
2013-08-30 03:43:00,64.1,62.6,29.96,ESE,119,0.0,1.0,95,0.00,,,0.00,Wunderground v.1.15,2013-08-30 07:43:00,
2013-08-30 03:48:00,64.0,62.5,29.96,ESE,119,0.0,1.0,95,0.00,,,0.00,Wunderground v.1.15,2013-08-30 07:48:00,
2013-08-30 03:53:00,63.9,62.1,29.97,ESE,119,0.0,1.0,94,0.00,,,0.00,Wunderground v.1.15,2013-08-30 07:53:00,
2013-08-30 03:58:00,63.9,62.4,29.96,SE,125,0.0,1.0,95,0.00,,,0.00,Wunderground v.1.15,2013-08-30 07:58:00,
2013-08-30 04:03:00,63.8,62.3,29.96,SE,126,1.0,2.0,95,0.00,,,0.00,Wunderground v.1.15,2013-08-30 08:03:00,
2013-08-30 04:09:00,63.8,62.3,29.96,SE,126,0.0,2.0,95,0.00,,,0.00,Wunderground v.1.15,2013-08-30 08:09:00,
2013-08-30 04:14:00,63.6,62.1,29.96,SE,126,0.0,1.0,95,0.00,,,0.00,Wunderground v.1.15,2013-08-30 08:14:00,
2013-08-30 04:19:00,63.6,62.1,29.97,SE,126,0.0,1.0,95,0.00,,,0.00,Wunderground v.1.15,2013-08-30 08:19:00,
2013-08-30 04:24:00,63.6,62.1,29.97,SE,126,0.0,1.0,95,0.00,,,0.00,Wunderground v.1.15,2013-08-30 08:24:00,
2013-08-30 04:29:00,63.5,62.0,29.97,SE,126,0.0,1.0,95,0.00,,,0.00,Wunderground v.1.15,2013-08-30 08:29:00,
2013-08-30 04:34:00,63.5,62.0,29.97,SE,126,0.0,1.0,95,0.00,,,0.00,Wunderground v.1.15,2013-08-30 08:34:00,
2013-08-30 04:39:00,63.4,61.9,29.96,SE,126,0.0,1.0,95,0.00,,,0.00,Wunderground v.1.15,2013-08-30 08:39:00,
2013-08-30 04:45:00,63.3,61.8,29.96,SE,126,0.0,1.0,95,0.00,,,0.00,Wunderground v.1.15,2013-08-30 08:45:00,
2013-08-30 04:50:00,63.2,61.7,29.97,SE,126,0.0,1.0,95,0.00,,,0.00,Wunderground v.1.15,2013-08-30 08:50:00,
2013-08-30 04:56:00,63.2,61.7,29.97,SE,126,0.0,1.0,95,0.00,,,0.00,Wunderground v.1.15,2013-08-30 08:56:00,
2013-08-30 05:01:00,63.1,61.6,29.97,SE,126,0.0,1.0,95,0.00,,,0.00,Wunderground v.1.15,2013-08-30 09:01:00,
2013-08-30 05:06:00,63.0,61.5,29.97,SE,126,0.0,1.0,95,0.00,,,0.00,Wunderground v.1.15,2013-08-30 09:06:00,
2013-08-30 05:12:00,62.9,61.4,29.98,SE,126,0.0,1.0,95,0.00,,,0.00,Wunderground v.1.15,2013-08-30 09:12:00,
2013-08-30 05:17:00,62.9,61.4,29.98,SE,126,0.0,1.0,95,0.00,,,0.00,Wunderground v.1.15,2013-08-30 09:17:00,
2013-08-30 05:22:00,62.9,61.4,29.97,SE,126,0.0,1.0,95,0.00,,,0.00,Wunderground v.1.15,2013-08-30 09:22:00,
2013-08-30 05:27:00,62.9,61.4,29.97,SE,126,0.0,1.0,95,0.00,,,0.00,Wunderground v.1.15,2013-08-30 09:27:00,
2013-08-30 05:32:00,62.8,61.3,29.98,SE,126,0.0,1.0,95,0.00,,,0.00,Wunderground v.1.15,2013-08-30 09:32:00,
2013-08-30 05:37:00,62.7,61.2,29.97,SE,126,0.0,1.0,95,0.00,,,0.00,Wunderground v.1.15,2013-08-30 09:37:00,
2013-08-30 05:43:00,62.7,61.2,29.97,SE,126,0.0,1.0,95,0.00,,,0.00,Wunderground v.1.15,2013-08-30 09:43:00,
2013-08-30 05:48:00,62.6,61.1,29.97,SE,126,0.0,1.0,95,0.00,,,0.00,Wunderground v.1.15,2013-08-30 09:48:00,
2013-08-30 05:53:00,62.5,61.0,29.97,SE,126,0.0,1.0,95,0.00,,,0.00,Wunderground v.1.15,2013-08-30 09:53:00,
2013-08-30 05:58:00,62.5,61.0,29.98,SE,126,0.0,1.0,95,0.00,,,0.00,Wunderground v.1.15,2013-08-30 09:58:00,
2013-08-30 06:03:00,62.4,60.9,29.98,SE,126,0.0,1.0,95,0.00,,,0.01,Wunderground v.1.15,2013-08-30 10:03:00,
2013-08-30 06:08:00,62.4,60.9,29.98,SE,126,0.0,1.0,95,0.00,,,0.01,Wunderground v.1.15,2013-08-30 10:08:00,
2013-08-30 06:13:00,62.4,60.9,29.98,SE,126,0.0,1.0,95,0.00,,,0.01,Wunderground v.1.15,2013-08-30 10:13:00,
2013-08-30 06:18:00,62.3,60.8,29.98,SE,126,0.0,1.0,95,0.00,,,0.01,Wunderground v.1.15,2013-08-30 10:18:00,
2013-08-30 06:23:00,62.2,60.8,29.98,SE,126,0.0,1.0,95,0.00,,,0.01,Wunderground v.1.15,2013-08-30 10:23:00,
2013-08-30 06:28:00,62.1,60.7,29.98,SE,126,0.0,1.0,95,0.00,,,0.01,Wunderground v.1.15,2013-08-30 10:28:00,
2013-08-30 06:33:00,62.2,60.8,29.98,SE,126,0.0,1.0,95,0.00,,,0.01,Wunderground v.1.15,2013-08-30 10:33:00,
2013-08-30 06:39:00,62.2,60.8,29.98,SE,126,0.0,1.0,95,0.00,,,0.01,Wunderground v.1.15,2013-08-30 10:39:00,
2013-08-30 06:44:00,62.1,60.7,29.98,SE,126,0.0,1.0,95,0.00,,,0.01,Wunderground v.1.15,2013-08-30 10:44:00,
2013-08-30 06:49:00,62.1,60.7,29.98,SE,126,0.0,1.0,95,0.00,,,0.01,Wunderground v.1.15,2013-08-30 10:49:00,
2013-08-30 06:54:00,62.0,60.6,29.98,SE,126,0.0,1.0,95,0.00,,,0.01,Wunderground v.1.15,2013-08-30 10:54:00,
2013-08-30 07:00:00,61.9,60.5,29.98,SE,126,0.0,1.0,95,0.00,,,0.01,Wunderground v.1.15,2013-08-30 11:00:00,
2013-08-30 07:06:00,62.0,60.6,29.98,SE,126,0.0,1.0,95,0.00,,,0.01,Wunderground v.1.15,2013-08-30 11:06:00,
2013-08-30 07:12:00,62.1,60.7,29.98,SE,126,0.0,1.0,95,0.00,,,0.01,Wunderground v.1.15,2013-08-30 11:12:00,
2013-08-30 07:17:00,62.2,60.8,29.98,SE,126,0.0,1.0,95,0.00,,,0.01,Wunderground v.1.15,2013-08-30 11:17:00,
2013-08-30 07:23:00,62.3,60.8,29.98,SE,126,0.0,1.0,95,0.00,,,0.01,Wunderground v.1.15,2013-08-30 11:23:00,
2013-08-30 07:28:00,62.4,60.9,29.98,SE,126,0.0,1.0,95,0.00,,,0.01,Wunderground v.1.15,2013-08-30 11:28:00,
2013-08-30 07:34:00,62.6,61.1,29.98,SE,126,0.0,1.0,95,0.00,,,0.01,Wunderground v.1.15,2013-08-30 11:34:00,
2013-08-30 07:39:00,62.9,61.4,29.98,SE,126,0.0,1.0,95,0.00,,,0.01,Wunderground v.1.15,2013-08-30 11:39:00,
2013-08-30 07:44:00,63.0,61.5,29.98,SE,126,0.0,1.0,95,0.00,,,0.01,Wunderground v.1.15,2013-08-30 11:44:00,
2013-08-30 07:49:00,63.3,61.8,29.98,SE,126,0.0,1.0,95,0.00,,,0.01,Wunderground v.1.15,2013-08-30 11:49:00,
2013-08-30 07:54:00,63.4,61.9,29.99,SE,126,0.0,1.0,95,0.00,,,0.01,Wunderground v.1.15,2013-08-30 11:54:00,
2013-08-30 08:00:00,63.4,61.9,29.98,SE,130,0.0,2.0,95,0.00,,,0.01,Wunderground v.1.15,2013-08-30 12:00:00,
2013-08-30 08:05:00,63.7,62.2,29.99,WSW,245,1.0,2.0,95,0.00,,,0.01,Wunderground v.1.15,2013-08-30 12:05:00,
2013-08-30 08:10:00,64.0,62.5,29.99,WSW,244,2.0,3.0,95,0.00,,,0.01,Wunderground v.1.15,2013-08-30 12:10:00,
2013-08-30 08:16:00,64.4,62.6,29.99,WSW,240,2.0,3.0,94,0.00,,,0.01,Wunderground v.1.15,2013-08-30 12:16:00,
2013-08-30 08:21:00,64.8,63.0,29.99,WSW,241,2.0,4.0,94,0.00,,,0.01,Wunderground v.1.15,2013-08-30 12:21:00,
2013-08-30 08:26:00,65.2,63.1,29.99,WSW,243,2.0,4.0,93,0.00,,,0.01,Wunderground v.1.15,2013-08-30 12:26:00,
2013-08-30 08:32:00,65.7,63.6,29.99,WSW,243,2.0,3.0,93,0.00,,,0.01,Wunderground v.1.15,2013-08-30 12:32:00,
2013-08-30 08:37:00,66.3,64.2,29.99,WSW,243,1.0,3.0,93,0.00,,,0.01,Wunderground v.1.15,2013-08-30 12:37:00,
2013-08-30 08:42:00,66.9,64.2,29.99,WSW,243,1.0,1.0,91,0.00,,,0.01,Wunderground v.1.15,2013-08-30 12:42:00,
2013-08-30 08:47:00,67.6,64.6,29.99,South,173,1.0,2.0,90,0.00,,,0.01,Wunderground v.1.15,2013-08-30 12:47:00,
2013-08-30 08:52:00,67.9,64.2,29.99,SSW,204,2.0,2.0,88,0.00,,,0.01,Wunderground v.1.15,2013-08-30 12:52:00,
2013-08-30 08:57:00,68.4,64.7,29.99,SSW,192,2.0,2.0,88,0.00,,,0.01,Wunderground v.1.15,2013-08-30 12:57:00,
2013-08-30 09:03:00,69.3,64.9,29.99,SSW,192,1.0,2.0,86,0.00,,,0.01,Wunderground v.1.15,2013-08-30 13:03:00,
2013-08-30 09:08:00,70.1,65.4,29.99,SSW,192,0.0,2.0,85,0.00,,,0.01,Wunderground v.1.15,2013-08-30 13:08:00,
2013-08-30 09:13:00,70.4,65.7,29.99,South,191,0.0,1.0,85,0.00,,,0.01,Wunderground v.1.15,2013-08-30 13:13:00,
2013-08-30 09:19:00,70.9,65.8,29.99,SSW,192,0.0,1.0,84,0.00,,,0.01,Wunderground v.1.15,2013-08-30 13:19:00,
2013-08-30 09:24:00,71.3,65.9,29.99,South,191,1.0,2.0,83,0.00,,,0.01,Wunderground v.1.15,2013-08-30 13:24:00,
2013-08-30 09:30:00,71.9,66.8,29.99,South,174,1.0,1.0,84,0.00,,,0.01,Wunderground v.1.15,2013-08-30 13:30:00,
2013-08-30 09:36:00,73.0,67.2,29.99,South,176,0.0,1.0,82,0.00,,,0.01,Wunderground v.1.15,2013-08-30 13:36:00,
2013-08-30 09:41:00,73.6,67.0,29.99,South,174,0.0,1.0,80,0.00,,,0.01,Wunderground v.1.15,2013-08-30 13:41:00,
2013-08-30 09:47:00,74.4,67.8,29.99,South,174,0.0,1.0,80,0.00,,,0.01,Wunderground v.1.15,2013-08-30 13:47:00,
2013-08-30 09:53:00,74.9,67.6,29.99,SW,223,1.0,4.0,78,0.00,,,0.01,Wunderground v.1.15,2013-08-30 13:53:00,
2013-08-30 09:58:00,74.8,67.5,29.99,West,280,1.0,4.0,78,0.00,,,0.01,Wunderground v.1.15,2013-08-30 13:58:00,
2013-08-30 10:04:00,74.7,68.1,29.99,WNW,295,1.0,1.0,80,0.00,,,0.01,Wunderground v.1.15,2013-08-30 14:04:00,
2013-08-30 10:10:00,75.6,68.3,29.99,SW,222,1.0,1.0,78,0.00,,,0.01,Wunderground v.1.15,2013-08-30 14:10:00,
2013-08-30 10:16:00,76.2,68.5,29.99,SE,137,1.0,2.0,77,0.00,,,0.01,Wunderground v.1.15,2013-08-30 14:16:00,
2013-08-30 10:21:00,76.5,68.7,29.98,SSE,167,1.0,1.0,77,0.00,,,0.01,Wunderground v.1.15,2013-08-30 14:21:00,
2013-08-30 10:26:00,76.4,68.7,29.99,SSW,212,1.0,3.0,77,0.00,,,0.01,Wunderground v.1.15,2013-08-30 14:26:00,
2013-08-30 10:32:00,76.8,68.7,29.99,SSW,200,1.0,1.0,76,0.00,,,0.01,Wunderground v.1.15,2013-08-30 14:32:00,
2013-08-30 10:38:00,77.5,68.6,29.99,SW,220,1.0,4.0,74,0.00,,,0.01,Wunderground v.1.15,2013-08-30 14:38:00,
2013-08-30 10:43:00,77.8,68.8,29.99,NW,314,2.0,3.0,74,0.00,,,0.01,Wunderground v.1.15,2013-08-30 14:43:00,
2013-08-30 10:49:00,78.2,68.4,29.98,South,188,2.0,3.0,72,0.00,,,0.01,Wunderground v.1.15,2013-08-30 14:49:00,
2013-08-30 10:55:00,78.9,69.1,29.98,South,186,2.0,6.0,72,0.00,,,0.01,Wunderground v.1.15,2013-08-30 14:55:00,
2013-08-30 11:01:00,79.5,68.9,29.98,South,191,2.0,3.0,70,0.00,,,0.01,Wunderground v.1.15,2013-08-30 15:01:00,
2013-08-30 11:06:00,79.6,69.4,29.98,WNW,283,2.0,3.0,71,0.00,,,0.01,Wunderground v.1.15,2013-08-30 15:06:00,
2013-08-30 11:12:00,79.6,68.5,29.98,South,187,1.0,1.0,69,0.00,,,0.01,Wunderground v.1.15,2013-08-30 15:12:00,
2013-08-30 11:18:00,80.0,68.9,29.98,West,278,1.0,2.0,69,0.00,,,0.01,Wunderground v.1.15,2013-08-30 15:18:00,
2013-08-30 11:23:00,79.5,68.0,29.98,WSW,242,2.0,5.0,68,0.00,,,0.01,Wunderground v.1.15,2013-08-30 15:23:00,
2013-08-30 11:29:00,78.6,68.0,29.98,WSW,237,3.0,5.0,70,0.00,,,0.01,Wunderground v.1.15,2013-08-30 15:29:00,
2013-08-30 11:34:00,78.5,67.9,29.97,West,265,2.0,5.0,70,0.00,,,0.01,Wunderground v.1.15,2013-08-30 15:34:00,
2013-08-30 11:39:00,78.2,68.0,29.97,SW,226,2.0,5.0,71,0.00,,,0.01,Wunderground v.1.15,2013-08-30 15:39:00,
2013-08-30 11:44:00,78.6,68.0,29.97,SW,219,2.0,2.0,70,0.00,,,0.01,Wunderground v.1.15,2013-08-30 15:44:00,
2013-08-30 11:50:00,79.3,68.2,29.97,SE,136,2.0,2.0,69,0.00,,,0.01,Wunderground v.1.15,2013-08-30 15:50:00,
2013-08-30 11:55:00,79.1,68.5,29.97,East,84,3.0,8.0,70,0.00,,,0.01,Wunderground v.1.15,2013-08-30 15:55:00,
2013-08-30 12:00:00,78.2,68.4,29.96,SE,124,4.0,4.0,72,0.00,,,0.01,Wunderground v.1.15,2013-08-30 16:00:00,
2013-08-30 12:05:00,78.8,68.6,29.96,South,177,5.0,7.0,71,0.00,,,0.01,Wunderground v.1.15,2013-08-30 16:05:00,
2013-08-30 12:11:00,79.3,69.1,29.96,ESE,116,4.0,4.0,71,0.00,,,0.01,Wunderground v.1.15,2013-08-30 16:11:00,
2013-08-30 12:17:00,79.2,69.0,29.96,SE,141,5.0,6.0,71,0.00,,,0.01,Wunderground v.1.15,2013-08-30 16:17:00,
2013-08-30 12:22:00,79.1,69.3,29.95,ESE,107,5.0,8.0,72,0.00,,,0.01,Wunderground v.1.15,2013-08-30 16:22:00,
2013-08-30 12:27:00,78.8,69.0,29.95,SE,139,5.0,9.0,72,0.00,,,0.01,Wunderground v.1.15,2013-08-30 16:27:00,
2013-08-30 12:32:00,78.8,68.2,29.95,SE,125,6.0,11.0,70,0.00,,,0.01,Wunderground v.1.15,2013-08-30 16:32:00,
2013-08-30 12:38:00,78.7,68.9,29.95,SSE,156,6.0,11.0,72,0.00,,,0.01,Wunderground v.1.15,2013-08-30 16:38:00,
2013-08-30 12:43:00,79.4,69.6,29.95,SSE,160,4.0,5.0,72,0.00,,,0.01,Wunderground v.1.15,2013-08-30 16:43:00,
2013-08-30 12:49:00,79.7,69.0,29.95,ESE,116,4.0,9.0,70,0.00,,,0.01,Wunderground v.1.15,2013-08-30 16:49:00,
2013-08-30 12:55:00,79.4,68.8,29.94,ESE,113,5.0,5.0,70,0.00,,,0.01,Wunderground v.1.15,2013-08-30 16:55:00,
2013-08-30 13:01:00,79.6,69.4,29.94,South,172,5.0,6.0,71,0.00,,,0.01,Wunderground v.1.15,2013-08-30 17:01:00,
2013-08-30 13:06:00,80.4,70.1,29.94,SE,127,5.0,7.0,71,0.00,,,0.01,Wunderground v.1.15,2013-08-30 17:06:00,
2013-08-30 13:12:00,80.6,69.9,29.94,SE,125,5.0,5.0,70,0.00,,,0.01,Wunderground v.1.15,2013-08-30 17:12:00,
2013-08-30 13:17:00,80.4,69.7,29.93,South,170,6.0,10.0,70,0.00,,,0.01,Wunderground v.1.15,2013-08-30 17:17:00,
2013-08-30 13:22:00,80.5,69.8,29.93,SE,136,6.0,8.0,70,0.00,,,0.01,Wunderground v.1.15,2013-08-30 17:22:00,
2013-08-30 13:28:00,80.2,69.5,29.93,SSE,149,6.0,8.0,70,0.00,,,0.01,Wunderground v.1.15,2013-08-30 17:28:00,
2013-08-30 13:33:00,80.3,69.6,29.93,SSW,201,6.0,7.0,70,0.00,,,0.01,Wunderground v.1.15,2013-08-30 17:33:00,
2013-08-30 13:38:00,80.7,69.6,29.92,SSE,159,6.0,8.0,69,0.00,,,0.01,Wunderground v.1.15,2013-08-30 17:38:00,
2013-08-30 13:44:00,81.1,69.5,29.93,SSE,157,5.0,8.0,68,0.00,,,0.01,Wunderground v.1.15,2013-08-30 17:44:00,
2013-08-30 13:49:00,81.2,69.6,29.93,SSE,147,6.0,10.0,68,0.00,,,0.01,Wunderground v.1.15,2013-08-30 17:49:00,
2013-08-30 13:55:00,81.4,69.4,29.92,SE,144,6.0,9.0,67,0.00,,,0.01,Wunderground v.1.15,2013-08-30 17:55:00,
2013-08-30 14:01:00,80.6,69.5,29.92,South,176,6.0,6.0,69,0.00,,,0.01,Wunderground v.1.15,2013-08-30 18:01:00,
2013-08-30 14:06:00,80.5,69.4,29.91,SSE,147,5.0,7.0,69,0.00,,,0.01,Wunderground v.1.15,2013-08-30 18:06:00,
2013-08-30 14:11:00,80.3,69.2,29.92,SSW,193,4.0,5.0,69,0.00,,,0.01,Wunderground v.1.15,2013-08-30 18:11:00,
2013-08-30 14:17:00,80.3,69.2,29.91,SSE,154,4.0,7.0,69,0.00,,,0.01,Wunderground v.1.15,2013-08-30 18:17:00,
2013-08-30 14:22:00,80.4,69.3,29.91,ESE,114,4.0,4.0,69,0.00,,,0.01,Wunderground v.1.15,2013-08-30 18:22:00,
2013-08-30 14:27:00,80.4,69.3,29.91,SE,127,4.0,6.0,69,0.00,,,0.01,Wunderground v.1.15,2013-08-30 18:27:00,
2013-08-30 14:32:00,80.4,68.9,29.91,SSE,154,4.0,5.0,68,0.00,,,0.01,Wunderground v.1.15,2013-08-30 18:32:00,
2013-08-30 14:37:00,80.2,69.1,29.91,ESE,120,3.0,6.0,69,0.00,,,0.01,Wunderground v.1.15,2013-08-30 18:37:00,
2013-08-30 14:42:00,80.2,69.1,29.91,SSE,165,3.0,7.0,69,0.00,,,0.01,Wunderground v.1.15,2013-08-30 18:42:00,
2013-08-30 14:48:00,79.5,68.4,29.91,SE,144,5.0,11.0,69,0.00,,,0.01,Wunderground v.1.15,2013-08-30 18:48:00,
2013-08-30 14:53:00,79.7,69.0,29.91,East,91,5.0,5.0,70,0.00,,,0.01,Wunderground v.1.15,2013-08-30 18:53:00,
2013-08-30 14:59:00,79.9,69.2,29.91,South,181,3.0,5.0,70,0.00,,,0.01,Wunderground v.1.15,2013-08-30 18:59:00,
2013-08-30 15:04:00,80.0,69.3,29.91,South,175,3.0,7.0,70,0.00,,,0.01,Wunderground v.1.15,2013-08-30 19:04:00,
2013-08-30 15:10:00,79.9,69.2,29.90,ESE,114,5.0,5.0,70,0.00,,,0.01,Wunderground v.1.15,2013-08-30 19:10:00,
2013-08-30 15:16:00,79.9,69.2,29.90,ESE,114,5.0,5.0,70,0.00,,,0.01,Wunderground v.1.15,2013-08-30 19:16:00,
2013-08-30 15:21:00,80.1,69.4,29.90,SE,143,3.0,4.0,70,0.00,,,0.01,Wunderground v.1.15,2013-08-30 19:21:00,
2013-08-30 15:27:00,80.4,69.3,29.90,SE,133,2.0,4.0,69,0.00,,,0.01,Wunderground v.1.15,2013-08-30 19:27:00,
2013-08-30 15:32:00,80.6,69.5,29.90,SE,143,2.0,3.0,69,0.00,,,0.01,Wunderground v.1.15,2013-08-30 19:32:00,
2013-08-30 15:37:00,80.8,69.2,29.90,SE,138,3.0,5.0,68,0.00,,,0.01,Wunderground v.1.15,2013-08-30 19:37:00,
2013-08-30 15:42:00,80.9,69.8,29.89,SSE,159,3.0,5.0,69,0.00,,,0.01,Wunderground v.1.15,2013-08-30 19:42:00,
2013-08-30 15:48:00,81.3,67.5,29.89,WSW,238,4.0,7.0,63,0.00,,,0.01,Wunderground v.1.15,2013-08-30 19:48:00,
2013-08-30 15:53:00,81.9,69.0,29.89,SSE,156,3.0,4.0,65,0.00,,,0.01,Wunderground v.1.15,2013-08-30 19:53:00,
2013-08-30 15:58:00,82.0,69.5,29.89,SSW,194,2.0,4.0,66,0.00,,,0.01,Wunderground v.1.15,2013-08-30 19:58:00,
2013-08-30 16:04:00,82.7,68.4,29.89,WNW,294,3.0,5.0,62,0.00,,,0.01,Wunderground v.1.15,2013-08-30 20:04:00,
2013-08-30 16:09:00,83.8,67.9,29.89,WSW,250,4.0,5.0,59,0.00,,,0.01,Wunderground v.1.15,2013-08-30 20:09:00,
2013-08-30 16:15:00,83.9,68.0,29.88,West,280,5.0,7.0,59,0.00,,,0.01,Wunderground v.1.15,2013-08-30 20:15:00,
2013-08-30 16:20:00,83.8,67.4,29.88,WSW,249,5.0,5.0,58,0.00,,,0.01,Wunderground v.1.15,2013-08-30 20:20:00,
2013-08-30 16:26:00,83.9,66.5,29.88,WSW,248,6.0,8.0,56,0.00,,,0.01,Wunderground v.1.15,2013-08-30 20:26:00,
2013-08-30 16:32:00,83.4,66.6,29.88,West,262,6.0,9.0,57,0.00,,,0.01,Wunderground v.1.15,2013-08-30 20:32:00,
2013-08-30 16:38:00,83.6,66.8,29.88,SSW,212,6.0,9.0,57,0.00,,,0.01,Wunderground v.1.15,2013-08-30 20:38:00,
2013-08-30 16:44:00,83.4,67.1,29.88,SW,236,6.0,9.0,58,0.00,,,0.01,Wunderground v.1.15,2013-08-30 20:44:00,
2013-08-30 16:50:00,82.7,66.4,29.88,SSW,208,6.0,6.0,58,0.00,,,0.01,Wunderground v.1.15,2013-08-30 20:50:00,
2013-08-30 16:56:00,82.7,67.4,29.88,SW,231,5.0,6.0,60,0.00,,,0.01,Wunderground v.1.15,2013-08-30 20:56:00,
2013-08-30 17:02:00,83.1,67.3,29.87,WSW,258,4.0,8.0,59,0.00,,,0.01,Wunderground v.1.15,2013-08-30 21:02:00,
2013-08-30 17:07:00,83.6,67.8,29.87,SW,218,4.0,8.0,59,0.00,,,0.01,Wunderground v.1.15,2013-08-30 21:07:00,
2013-08-30 17:12:00,83.9,68.0,29.87,WSW,241,3.0,4.0,59,0.00,,,0.01,Wunderground v.1.15,2013-08-30 21:12:00,
2013-08-30 17:17:00,83.7,67.8,29.87,SSE,167,3.0,5.0,59,0.00,,,0.01,Wunderground v.1.15,2013-08-30 21:17:00,
2013-08-30 17:23:00,83.5,67.7,29.87,SSW,197,4.0,4.0,59,0.00,,,0.01,Wunderground v.1.15,2013-08-30 21:23:00,
2013-08-30 17:28:00,83.2,67.4,29.87,SW,220,4.0,7.0,59,0.00,,,0.01,Wunderground v.1.15,2013-08-30 21:28:00,
2013-08-30 17:33:00,83.0,67.7,29.87,WSW,256,5.0,5.0,60,0.00,,,0.01,Wunderground v.1.15,2013-08-30 21:33:00,
2013-08-30 17:39:00,83.1,69.2,29.87,South,183,4.0,7.0,63,0.00,,,0.01,Wunderground v.1.15,2013-08-30 21:39:00,
2013-08-30 17:44:00,82.1,69.2,29.86,SSE,168,5.0,6.0,65,0.00,,,0.01,Wunderground v.1.15,2013-08-30 21:44:00,
2013-08-30 17:50:00,81.6,69.1,29.86,SE,143,5.0,5.0,66,0.00,,,0.01,Wunderground v.1.15,2013-08-30 21:50:00,
2013-08-30 17:55:00,81.4,69.4,29.86,ESE,120,5.0,5.0,67,0.00,,,0.01,Wunderground v.1.15,2013-08-30 21:55:00,
2013-08-30 18:00:00,81.2,69.6,29.86,SE,143,4.0,4.0,68,0.00,,,0.01,Wunderground v.1.15,2013-08-30 22:00:00,
2013-08-30 18:06:00,80.9,69.3,29.86,SE,143,5.0,8.0,68,0.00,,,0.01,Wunderground v.1.15,2013-08-30 22:06:00,
2013-08-30 18:12:00,80.6,69.5,29.86,ESE,122,5.0,8.0,69,0.00,,,0.01,Wunderground v.1.15,2013-08-30 22:12:00,
2013-08-30 18:18:00,80.3,69.6,29.86,SSE,151,5.0,9.0,70,0.00,,,0.01,Wunderground v.1.15,2013-08-30 22:18:00,
2013-08-30 18:23:00,80.3,69.2,29.86,SE,133,5.0,8.0,69,0.00,,,0.01,Wunderground v.1.15,2013-08-30 22:23:00,
2013-08-30 18:28:00,80.0,69.3,29.86,SSE,149,5.0,8.0,70,0.00,,,0.01,Wunderground v.1.15,2013-08-30 22:28:00,
2013-08-30 18:34:00,79.8,69.6,29.85,ESE,120,6.0,7.0,71,0.00,,,0.01,Wunderground v.1.15,2013-08-30 22:34:00,
2013-08-30 18:39:00,79.6,69.4,29.85,SE,133,5.0,7.0,71,0.00,,,0.01,Wunderground v.1.15,2013-08-30 22:39:00,
2013-08-30 18:45:00,79.3,69.1,29.85,SSE,168,5.0,7.0,71,0.00,,,0.01,Wunderground v.1.15,2013-08-30 22:45:00,
2013-08-30 18:51:00,79.1,68.9,29.85,SSE,164,6.0,6.0,71,0.00,,,0.01,Wunderground v.1.15,2013-08-30 22:51:00,
2013-08-30 18:57:00,78.9,69.1,29.85,SE,141,5.0,8.0,72,0.00,,,0.01,Wunderground v.1.15,2013-08-30 22:57:00,
2013-08-30 19:03:00,78.7,69.3,29.85,SE,127,4.0,6.0,73,0.00,,,0.01,Wunderground v.1.15,2013-08-30 23:03:00,
2013-08-30 19:09:00,78.5,69.1,29.85,SE,140,4.0,6.0,73,0.00,,,0.01,Wunderground v.1.15,2013-08-30 23:09:00,
2013-08-30 19:15:00,78.3,69.3,29.85,SE,143,4.0,5.0,74,0.00,,,0.01,Wunderground v.1.15,2013-08-30 23:15:00,
2013-08-30 19:21:00,78.1,69.1,29.85,SE,131,4.0,4.0,74,0.00,,,0.01,Wunderground v.1.15,2013-08-30 23:21:00,
2013-08-30 19:26:00,77.9,68.9,29.85,SSE,147,3.0,6.0,74,0.00,,,0.01,Wunderground v.1.15,2013-08-30 23:26:00,
2013-08-30 19:32:00,77.6,69.0,29.85,SSE,156,3.0,5.0,75,0.00,,,0.01,Wunderground v.1.15,2013-08-30 23:32:00,
2013-08-30 19:37:00,77.3,68.8,29.85,SSE,163,4.0,5.0,75,0.00,,,0.01,Wunderground v.1.15,2013-08-30 23:37:00,
2013-08-30 19:43:00,77.0,68.9,29.85,SSE,165,3.0,4.0,76,0.00,,,0.01,Wunderground v.1.15,2013-08-30 23:43:00,
2013-08-30 19:48:00,76.9,68.8,29.85,SSE,152,3.0,5.0,76,0.00,,,0.01,Wunderground v.1.15,2013-08-30 23:48:00,
2013-08-30 19:54:00,76.7,68.6,29.85,SSE,168,3.0,4.0,76,0.00,,,0.01,Wunderground v.1.15,2013-08-30 23:54:00,
2013-08-30 19:59:00,76.6,68.5,29.84,SSE,153,3.0,4.0,76,0.00,,,0.01,Wunderground v.1.15,2013-08-30 23:59:00,
2013-08-30 20:05:00,76.4,68.3,29.85,SSE,150,3.0,4.0,76,0.00,,,0.01,Wunderground v.1.15,2013-08-31 00:05:00,
2013-08-30 20:10:00,76.3,68.2,29.85,SE,131,3.0,5.0,76,0.00,,,0.01,Wunderground v.1.15,2013-08-31 00:10:00,
2013-08-30 20:16:00,76.1,68.0,29.85,SSE,156,3.0,5.0,76,0.00,,,0.01,Wunderground v.1.15,2013-08-31 00:16:00,
2013-08-30 20:21:00,76.0,67.9,29.85,SSE,165,3.0,6.0,76,0.00,,,0.01,Wunderground v.1.15,2013-08-31 00:21:00,
2013-08-30 20:27:00,75.8,68.1,29.85,SSE,154,3.0,6.0,77,0.00,,,0.01,Wunderground v.1.15,2013-08-31 00:27:00,
2013-08-30 20:33:00,75.7,68.0,29.85,SSE,166,3.0,3.0,77,0.00,,,0.01,Wunderground v.1.15,2013-08-31 00:33:00,
2013-08-30 20:39:00,75.6,68.3,29.86,SSE,166,1.0,3.0,78,0.00,,,0.01,Wunderground v.1.15,2013-08-31 00:39:00,
2013-08-30 20:44:00,75.4,67.7,29.86,South,174,1.0,2.0,77,0.00,,,0.01,Wunderground v.1.15,2013-08-31 00:44:00,
2013-08-30 20:50:00,75.5,68.2,29.86,SSE,164,2.0,3.0,78,0.00,,,0.01,Wunderground v.1.15,2013-08-31 00:50:00,
2013-08-30 20:55:00,75.5,68.2,29.86,South,171,2.0,3.0,78,0.00,,,0.01,Wunderground v.1.15,2013-08-31 00:55:00,
2013-08-30 21:00:00,75.4,68.1,29.86,South,173,3.0,3.0,78,0.00,,,0.01,Wunderground v.1.15,2013-08-31 01:00:00,
2013-08-30 21:06:00,75.3,68.0,29.86,SSW,211,3.0,4.0,78,0.00,,,0.01,Wunderground v.1.15,2013-08-31 01:06:00,
2013-08-30 21:12:00,75.2,67.9,29.86,South,181,3.0,4.0,78,0.00,,,0.01,Wunderground v.1.15,2013-08-31 01:12:00,
2013-08-30 21:18:00,75.1,68.1,29.86,South,175,2.0,4.0,79,0.00,,,0.01,Wunderground v.1.15,2013-08-31 01:18:00,
2013-08-30 21:24:00,75.0,68.0,29.86,SE,144,2.0,5.0,79,0.00,,,0.01,Wunderground v.1.15,2013-08-31 01:24:00,
2013-08-30 21:29:00,74.9,67.9,29.86,South,174,2.0,5.0,79,0.00,,,0.01,Wunderground v.1.15,2013-08-31 01:29:00,
2013-08-30 21:34:00,74.8,67.8,29.86,South,174,1.0,2.0,79,0.00,,,0.01,Wunderground v.1.15,2013-08-31 01:34:00,
2013-08-30 21:39:00,74.8,67.8,29.86,South,170,1.0,2.0,79,0.00,,,0.01,Wunderground v.1.15,2013-08-31 01:39:00,
2013-08-30 21:45:00,74.7,68.1,29.86,SSE,163,1.0,2.0,80,0.00,,,0.01,Wunderground v.1.15,2013-08-31 01:45:00,
2013-08-30 21:50:00,74.6,68.0,29.85,SSE,158,2.0,4.0,80,0.00,,,0.01,Wunderground v.1.15,2013-08-31 01:50:00,
2013-08-30 21:56:00,74.5,67.9,29.85,SSE,160,3.0,6.0,80,0.00,,,0.01,Wunderground v.1.15,2013-08-31 01:56:00,
2013-08-30 22:02:00,74.5,67.9,29.86,SSE,153,3.0,7.0,80,0.00,,,0.01,Wunderground v.1.15,2013-08-31 02:02:00,
2013-08-30 22:07:00,74.6,68.0,29.86,South,177,4.0,7.0,80,0.00,,,0.01,Wunderground v.1.15,2013-08-31 02:07:00,
2013-08-30 22:13:00,74.5,67.9,29.86,SSE,156,3.0,3.0,80,0.00,,,0.01,Wunderground v.1.15,2013-08-31 02:13:00,
2013-08-30 22:18:00,74.4,67.8,29.86,SSE,166,2.0,4.0,80,0.00,,,0.01,Wunderground v.1.15,2013-08-31 02:18:00,
2013-08-30 22:23:00,74.4,68.2,29.86,South,170,2.0,2.0,81,0.00,,,0.01,Wunderground v.1.15,2013-08-31 02:23:00,
2013-08-30 22:29:00,74.2,68.0,29.86,SSE,163,1.0,3.0,81,0.00,,,0.01,Wunderground v.1.15,2013-08-31 02:29:00,
2013-08-30 22:34:00,74.1,67.9,29.86,SSE,166,1.0,2.0,81,0.00,,,0.01,Wunderground v.1.15,2013-08-31 02:34:00,
2013-08-30 22:39:00,74.0,68.2,29.86,SSE,166,1.0,2.0,82,0.00,,,0.01,Wunderground v.1.15,2013-08-31 02:39:00,
2013-08-30 22:44:00,73.9,68.1,29.86,SSE,166,1.0,1.0,82,0.00,,,0.01,Wunderground v.1.15,2013-08-31 02:44:00,
2013-08-30 22:49:00,73.7,67.9,29.87,SSE,166,1.0,1.0,82,0.00,,,0.01,Wunderground v.1.15,2013-08-31 02:49:00,
2013-08-30 22:55:00,73.5,68.0,29.87,SSE,166,0.0,1.0,83,0.00,,,0.01,Wunderground v.1.15,2013-08-31 02:55:00,
2013-08-30 23:00:00,73.4,67.9,29.87,SSE,166,1.0,1.0,83,0.00,,,0.01,Wunderground v.1.15,2013-08-31 03:00:00,
2013-08-30 23:05:00,73.3,67.8,29.87,SSE,166,1.0,2.0,83,0.00,,,0.01,Wunderground v.1.15,2013-08-31 03:05:00,
2013-08-30 23:11:00,73.2,67.7,29.87,SSE,166,0.0,1.0,83,0.00,,,0.01,Wunderground v.1.15,2013-08-31 03:11:00,
2013-08-30 23:16:00,73.1,67.6,29.87,SSE,166,0.0,1.0,83,0.00,,,0.01,Wunderground v.1.15,2013-08-31 03:16:00,
2013-08-30 23:21:00,72.9,67.8,29.87,SSE,166,0.0,1.0,84,0.00,,,0.01,Wunderground v.1.15,2013-08-31 03:21:00,
2013-08-30 23:27:00,72.7,67.6,29.87,SSE,166,0.0,1.0,84,0.00,,,0.01,Wunderground v.1.15,2013-08-31 03:27:00,
2013-08-30 23:32:00,72.4,67.6,29.88,SSE,166,0.0,1.0,85,0.00,,,0.01,Wunderground v.1.15,2013-08-31 03:32:00,
2013-08-30 23:37:00,72.2,67.4,29.88,SSE,166,0.0,1.0,85,0.00,,,0.01,Wunderground v.1.15,2013-08-31 03:37:00,
2013-08-30 23:43:00,71.9,67.5,29.88,SSE,166,0.0,2.0,86,0.00,,,0.01,Wunderground v.1.15,2013-08-31 03:43:00,
2013-08-30 23:48:00,71.9,67.5,29.88,SSE,166,0.0,2.0,86,0.00,,,0.01,Wunderground v.1.15,2013-08-31 03:48:00,
2013-08-30 23:53:00,71.9,67.5,29.88,SSE,166,0.0,1.0,86,0.00,,,0.01,Wunderground v.1.15,2013-08-31 03:53:00,
2013-08-30 23:58:00,71.9,67.8,29.88,SSE,166,0.0,1.0,87,0.00,,,0.01,Wunderground v.1.15,2013-08-31 03:58:00,